createdAt,value
2018-12-25T00:10:53.024Z,98130.77
2018-12-25T00:13:23.353Z,98142.49
2018-12-25T00:15:53.724Z,98148.34
2018-12-25T00:18:23.983Z,98153.25
2018-12-25T00:21:06.147Z,98144.39
2018-12-25T00:23:36.412Z,98161.88
2018-12-25T00:26:06.778Z,98158.77
2018-12-25T00:28:37.105Z,98160.12
2018-12-25T00:31:07.388Z,98176.34
2018-12-25T00:33:37.648Z,98167.90
2018-12-25T00:44:45.828Z,98159.52
2018-12-25T00:47:16.110Z,98162.77
2018-12-25T00:49:46.384Z,98157.48
2018-12-25T00:52:16.713Z,98165.04
2018-12-25T00:54:47.074Z,98173.11
2018-12-25T00:57:17.330Z,98164.75
2018-12-25T00:59:47.649Z,98175.01
2018-12-25T01:02:17.903Z,98170.13
2018-12-25T01:04:48.276Z,98175.09
2018-12-25T01:07:18.647Z,98175.66
2018-12-25T01:09:48.976Z,98155.97
2018-12-25T01:12:19.228Z,98164.12
2018-12-25T01:14:49.586Z,98162.86
2018-12-25T01:17:19.846Z,98162.45
2018-12-25T01:19:50.119Z,98160.27
2018-12-25T01:22:20.380Z,98160.73
2018-12-25T01:24:50.628Z,98160.33
2018-12-25T01:27:20.986Z,98157.17
2018-12-25T01:29:51.312Z,98150.55
2018-12-25T01:32:21.663Z,98151.47
2018-12-25T01:34:52.038Z,98142.07
2018-12-25T01:37:22.370Z,98143.91
2018-12-25T01:39:52.628Z,98148.00
2018-12-25T01:42:22.909Z,98152.03
2018-12-25T01:44:53.313Z,98148.97
2018-12-25T01:47:23.625Z,98148.09
2018-12-25T01:49:53.908Z,98149.53
2018-12-25T01:52:24.231Z,98156.63
2018-12-25T01:54:54.529Z,98156.71
2018-12-25T01:57:24.859Z,98163.11
2018-12-25T01:59:55.179Z,98150.17
2018-12-25T02:02:25.515Z,98152.86
2018-12-25T02:04:55.841Z,98153.80
2018-12-25T02:07:26.110Z,98158.23
2018-12-25T02:09:56.430Z,98161.39
2018-12-25T02:12:26.687Z,98164.54
2018-12-25T02:14:56.972Z,98152.12
2018-12-25T02:17:28.849Z,98167.41
2018-12-25T02:19:59.144Z,98158.47
2018-12-25T02:22:29.400Z,98151.84
2018-12-25T02:24:59.687Z,98172.37
2018-12-25T02:27:29.971Z,98141.94
2018-12-25T02:30:00.362Z,98138.47
2018-12-25T02:35:39.046Z,98138.09
2018-12-25T02:38:09.343Z,98128.27
2018-12-25T02:40:39.676Z,98126.55
2018-12-25T02:43:10.034Z,98137.68
2018-12-25T02:45:40.347Z,98135.48
2018-12-25T02:48:10.629Z,98136.89
2018-12-25T02:50:40.886Z,98127.48
2018-12-25T02:53:11.143Z,98132.48
2018-12-25T02:56:00.476Z,98130.27
2018-12-25T02:58:30.820Z,98126.23
2018-12-25T03:01:01.185Z,98122.30
2018-12-25T03:03:31.495Z,98107.05
2018-12-25T03:06:01.803Z,98110.76
2018-12-25T03:08:32.132Z,98111.64
2018-12-25T03:11:02.504Z,98121.04
2018-12-25T03:13:32.841Z,98120.16
2018-12-25T03:16:03.182Z,98110.67
2018-12-25T03:18:33.546Z,98117.48
2018-12-25T03:21:03.822Z,98133.16
2018-12-25T03:23:34.167Z,98131.43
2018-12-25T03:26:04.488Z,98132.77
2018-12-25T03:28:34.788Z,98123.75
2018-12-25T03:31:05.276Z,98142.17
2018-12-25T03:33:35.643Z,98126.98
2018-12-25T03:36:05.972Z,98133.70
2018-12-25T03:41:18.442Z,98124.86
2018-12-25T03:43:48.783Z,98122.27
2018-12-25T03:46:19.052Z,98130.73
2018-12-25T03:51:44.282Z,98129.95
2018-12-25T03:54:14.573Z,98139.81
2018-12-25T03:56:44.835Z,98155.46
2018-12-25T04:02:02.007Z,98162.64
2018-12-25T04:07:26.854Z,98157.73
2018-12-25T04:09:57.225Z,98168.95
2018-12-25T04:12:27.544Z,98172.52
2018-12-25T04:14:57.909Z,98181.53
2018-12-25T04:17:28.306Z,98181.53
2018-12-25T04:19:58.598Z,98170.47
2018-12-25T04:22:28.921Z,98174.08
2018-12-25T04:24:59.285Z,98179.87
2018-12-25T04:27:29.615Z,98172.28
2018-12-25T04:29:59.979Z,98171.48
2018-12-25T04:32:30.259Z,98163.89
2018-12-25T04:35:00.512Z,98163.05
2018-12-25T04:37:30.890Z,98161.70
2018-12-25T04:40:01.146Z,98166.58
2018-12-25T04:42:50.309Z,98168.89
2018-12-25T04:45:20.638Z,98170.23
2018-12-25T04:47:51.010Z,98171.58
2018-12-25T04:50:29.190Z,98172.04
2018-12-25T04:52:58.705Z,98176.95
2018-12-25T04:55:29.028Z,98169.81
2018-12-25T04:57:59.317Z,98176.16
2018-12-25T05:00:29.588Z,98177.88
2018-12-25T05:02:59.870Z,98184.21
2018-12-25T05:05:35.401Z,98181.06
2018-12-25T05:08:05.797Z,98196.67
2018-12-25T05:10:36.052Z,98199.91
2018-12-25T05:13:06.405Z,98198.98
2018-12-25T05:15:36.741Z,98189.59
2018-12-25T05:18:07.127Z,98196.39
2018-12-25T05:20:56.508Z,98200.41
2018-12-25T05:23:26.888Z,98202.22
2018-12-25T05:25:57.213Z,98204.49
2018-12-25T05:28:39.003Z,98209.41
2018-12-25T05:31:09.374Z,98204.49
2018-12-25T05:33:39.748Z,98214.86
2018-12-25T05:36:10.079Z,98221.57
2018-12-25T05:38:40.397Z,98223.80
2018-12-25T05:41:10.688Z,98225.14
2018-12-25T05:43:41.018Z,98229.16
2018-12-25T05:46:11.272Z,98230.02
2018-12-25T05:48:41.602Z,98221.48
2018-12-25T05:51:11.854Z,98222.45
2018-12-25T05:53:42.139Z,98227.33
2018-12-25T05:56:12.465Z,98223.70
2018-12-25T05:58:42.815Z,98238.48
2018-12-25T06:01:13.149Z,98241.55
2018-12-25T06:03:43.444Z,98238.48
2018-12-25T06:06:13.721Z,98238.02
2018-12-25T06:08:44.107Z,98241.08
2018-12-25T06:11:16.585Z,98246.91
2018-12-25T06:13:46.950Z,98243.77
2018-12-25T06:16:17.226Z,98243.30
2018-12-25T06:18:47.593Z,98241.95
2018-12-25T06:21:17.926Z,98246.86
2018-12-25T06:23:48.186Z,98249.93
2018-12-25T06:26:18.513Z,98256.18
2018-12-25T06:28:48.783Z,98260.20
2018-12-25T06:31:19.038Z,98262.43
2018-12-25T06:33:49.293Z,98272.30
2018-12-25T06:36:19.703Z,98274.02
2018-12-25T06:38:50.037Z,98275.77
2018-12-25T06:41:20.368Z,98274.81
2018-12-25T06:43:50.634Z,98277.50
2018-12-25T06:46:20.930Z,98281.06
2018-12-25T06:48:51.270Z,98275.69
2018-12-25T06:51:21.904Z,98276.56
2018-12-25T06:53:52.229Z,98280.97
2018-12-25T06:56:22.712Z,98276.89
2018-12-25T06:58:53.049Z,98277.27
2018-12-25T07:01:23.387Z,98276.72
2018-12-25T07:03:53.643Z,98278.77
2018-12-25T07:06:23.993Z,98280.02
2018-12-25T07:08:54.255Z,98280.53
2018-12-25T07:11:24.612Z,98276.03
2018-12-25T07:13:55.042Z,98278.67
2018-12-25T07:16:25.315Z,98286.27
2018-12-25T07:18:55.616Z,98279.05
2018-12-25T07:21:27.542Z,98278.03
2018-12-25T07:23:57.963Z,98273.91
2018-12-25T07:26:28.357Z,98270.21
2018-12-25T07:29:17.626Z,98285.41
2018-12-25T07:34:42.636Z,98283.33
2018-12-25T07:37:12.892Z,98285.14
2018-12-25T07:39:43.242Z,98287.78
2018-12-25T07:42:32.602Z,98283.75
2018-12-25T07:45:02.871Z,98290.93
2018-12-25T07:47:33.205Z,98281.91
2018-12-25T07:50:22.431Z,98290.47
2018-12-25T07:52:52.773Z,98287.78
2018-12-25T07:55:23.079Z,98286.26
2018-12-25T07:57:53.404Z,98286.67
2018-12-25T08:00:23.737Z,98289.73
2018-12-25T08:02:54.026Z,98286.97
2018-12-25T08:08:13.630Z,98287.38
2018-12-25T08:10:43.963Z,98293.77
2018-12-25T08:13:14.252Z,98302.47
2018-12-25T08:15:44.579Z,98298.81
2018-12-25T08:18:14.869Z,98302.84
2018-12-25T08:20:45.127Z,98291.25
2018-12-25T08:23:15.482Z,98295.34
2018-12-25T08:25:45.858Z,98304.69
2018-12-25T08:28:16.143Z,98306.50
2018-12-25T08:30:46.414Z,98302.47
2018-12-25T08:33:16.754Z,98315.44
2018-12-25T08:35:47.042Z,98316.28
2018-12-25T08:38:17.303Z,98314.95
2018-12-25T08:40:47.667Z,98312.25
2018-12-25T08:43:17.991Z,98315.83
2018-12-25T08:45:48.288Z,98309.98
2018-12-25T08:48:18.550Z,98307.38
2018-12-25T08:50:48.908Z,98311.33
2018-12-25T08:53:19.171Z,98322.54
2018-12-25T08:55:49.491Z,98315.83
2018-12-25T08:58:19.848Z,98311.80
2018-12-25T09:00:50.111Z,98311.33
2018-12-25T09:03:20.391Z,98305.95
2018-12-25T09:05:50.727Z,98304.14
2018-12-25T09:08:21.087Z,98305.86
2018-12-25T09:10:51.427Z,98298.77
2018-12-25T09:13:21.714Z,98293.39
2018-12-25T09:15:52.039Z,98288.86
2018-12-25T09:18:22.402Z,98287.93
2018-12-25T09:20:52.661Z,98291.55
2018-12-25T09:23:22.942Z,98291.96
2018-12-25T09:25:53.282Z,98287.52
2018-12-25T09:28:28.779Z,98289.27
2018-12-25T09:30:59.032Z,98291.96
2018-12-25T09:33:29.368Z,98307.62
2018-12-25T09:35:59.691Z,98301.83
2018-12-25T09:38:30.021Z,98300.48
2018-12-25T09:41:00.344Z,98303.09
2018-12-25T09:43:30.687Z,98296.38
2018-12-25T09:46:00.966Z,98300.41
2018-12-25T09:48:31.300Z,98302.16
2018-12-25T09:51:01.626Z,98297.71
2018-12-25T09:53:32.085Z,98295.99
2018-12-25T09:56:04.011Z,98299.47
2018-12-25T09:58:34.382Z,98307.20
2018-12-25T10:01:04.755Z,98308.47
2018-12-25T10:03:35.085Z,98307.13
2018-12-25T10:06:05.435Z,98309.34
2018-12-25T10:08:35.761Z,98300.81
2018-12-25T10:11:06.112Z,98301.75
2018-12-25T10:13:36.442Z,98292.34
2018-12-25T10:16:06.800Z,98283.34
2018-12-25T10:18:37.060Z,98286.50
2018-12-25T10:21:07.528Z,98289.27
2018-12-25T10:23:37.870Z,98288.39
2018-12-25T10:26:08.146Z,98306.66
2018-12-25T10:28:38.402Z,98294.09
2018-12-25T10:31:08.739Z,98295.03
2018-12-25T10:33:39.086Z,98299.06
2018-12-25T10:36:09.448Z,98310.77
2018-12-25T10:38:41.337Z,98309.81
2018-12-25T10:41:11.684Z,98308.09
2018-12-25T10:43:42.019Z,98297.25
2018-12-25T10:46:14.774Z,98299.94
2018-12-25T10:48:45.116Z,98299.94
2018-12-25T10:51:18.223Z,98286.59
2018-12-25T10:53:48.547Z,98277.18
2018-12-25T10:56:18.885Z,98289.66
2018-12-25T10:58:49.241Z,98289.73
2018-12-25T11:01:23.172Z,98291.55
2018-12-25T11:03:53.533Z,98294.23
2018-12-25T11:06:23.857Z,98309.89
2018-12-25T11:08:54.209Z,98314.80
2018-12-25T11:11:24.549Z,98304.05
2018-12-25T11:13:54.909Z,98279.87
2018-12-25T11:16:25.259Z,98265.55
2018-12-25T11:18:55.624Z,98260.09
2018-12-25T11:21:25.957Z,98248.41
2018-12-25T11:23:56.308Z,98242.16
2018-12-25T11:26:26.634Z,98239.94
2018-12-25T11:28:57.000Z,98247.06
2018-12-25T11:31:27.255Z,98239.00
2018-12-25T11:33:57.614Z,98229.59
2018-12-25T11:36:27.883Z,98242.16
2018-12-25T11:38:58.242Z,98234.09
2018-12-25T11:41:28.492Z,98243.50
2018-12-25T11:43:58.847Z,98249.75
2018-12-25T11:46:29.098Z,98243.97
2018-12-25T11:48:59.458Z,98240.44
2018-12-25T11:51:29.784Z,98236.45
2018-12-25T11:54:00.071Z,98237.80
2018-12-25T11:56:30.415Z,98248.17
2018-12-25T11:59:00.695Z,98242.33
2018-12-25T12:01:31.027Z,98237.89
2018-12-25T12:04:01.403Z,98228.48
2018-12-25T12:06:31.655Z,98237.89
2018-12-25T12:09:01.937Z,98234.33
2018-12-25T12:11:33.821Z,98226.27
2018-12-25T12:14:04.185Z,98218.20
2018-12-25T12:16:36.066Z,98224.07
2018-12-25T12:19:06.451Z,98230.80
2018-12-25T12:21:36.776Z,98232.13
2018-12-25T12:24:07.067Z,98233.48
2018-12-25T12:26:37.321Z,98232.98
2018-12-25T12:29:07.617Z,98239.32
2018-12-25T12:31:37.943Z,98248.26
2018-12-25T12:34:08.303Z,98248.73
2018-12-25T12:36:38.630Z,98250.53
2018-12-25T12:39:09.004Z,98245.63
2018-12-25T12:41:39.337Z,98248.73
2018-12-25T12:44:21.790Z,98245.16
2018-12-25T12:46:52.065Z,98234.88
2018-12-25T12:49:22.436Z,98238.53
2018-12-25T12:51:52.722Z,98243.91
2018-12-25T12:54:23.016Z,98240.75
2018-12-25T12:56:53.281Z,98235.84
2018-12-25T12:59:23.642Z,98234.09
2018-12-25T13:01:53.979Z,98230.05
2018-12-25T13:04:24.321Z,98235.93
2018-12-25T13:06:54.592Z,98231.41
2018-12-25T13:09:24.918Z,98226.99
2018-12-25T13:11:55.261Z,98226.11
2018-12-25T13:14:25.585Z,98227.38
2018-12-25T13:16:56.011Z,98223.42
2018-12-25T13:19:26.353Z,98219.86
2018-12-25T13:21:56.712Z,98228.33
2018-12-25T13:24:26.966Z,98221.70
2018-12-25T13:26:57.385Z,98223.05
2018-12-25T13:29:27.718Z,98230.23
2018-12-25T13:34:40.331Z,98219.07
2018-12-25T13:37:10.711Z,98218.69
2018-12-25T13:39:41.035Z,98220.91
2018-12-25T13:42:11.332Z,98221.38
2018-12-25T13:44:41.582Z,98220.91
2018-12-25T13:47:11.862Z,98208.88
2018-12-25T13:49:42.130Z,98208.50
2018-12-25T13:52:12.428Z,98209.44
2018-12-25T13:54:42.791Z,98213.88
2018-12-25T13:57:13.049Z,98213.46
2018-12-25T13:59:43.349Z,98211.19
2018-12-25T14:02:13.727Z,98217.49
2018-12-25T14:04:44.002Z,98221.05
2018-12-25T14:07:14.332Z,98224.20
2018-12-25T14:09:44.681Z,98227.86
2018-12-25T14:12:15.003Z,98238.14
2018-12-25T14:14:45.383Z,98236.80
2018-12-25T14:17:15.719Z,98230.64
2018-12-25T14:22:41.066Z,98232.83
2018-12-25T14:28:06.674Z,98241.94
2018-12-25T14:30:37.031Z,98235.22
2018-12-25T14:33:07.288Z,98244.12
2018-12-25T14:35:37.638Z,98241.05
2018-12-25T14:38:08.008Z,98247.31
2018-12-25T14:40:38.365Z,98252.68
2018-12-25T14:43:08.746Z,98250.00
2018-12-25T14:45:39.076Z,98249.03
2018-12-25T14:48:09.443Z,98260.24
2018-12-25T14:50:39.705Z,98260.24
2018-12-25T14:53:10.082Z,98257.55
2018-12-25T14:55:40.352Z,98267.92
2018-12-25T14:58:12.258Z,98265.75
2018-12-25T15:00:42.521Z,98276.50
2018-12-25T15:03:12.843Z,98266.77
2018-12-25T15:05:43.206Z,98278.77
2018-12-25T15:08:13.465Z,98281.88
2018-12-25T15:10:43.794Z,98267.48
2018-12-25T15:13:14.164Z,98274.17
2018-12-25T15:18:33.751Z,98281.82
2018-12-25T15:21:04.022Z,98277.33
2018-12-25T15:23:34.279Z,98280.80
2018-12-25T15:26:04.608Z,98283.08
2018-12-25T15:28:34.904Z,98289.33
2018-12-25T15:31:05.276Z,98296.45
2018-12-25T15:33:35.636Z,98292.02
2018-12-25T15:36:05.969Z,98291.93
2018-12-25T15:38:36.255Z,98298.27
2018-12-25T15:41:06.523Z,98292.02
2018-12-25T15:43:36.946Z,98296.52
2018-12-25T15:46:07.304Z,98305.07
2018-12-25T15:48:37.712Z,98306.33
2018-12-25T15:51:08.540Z,98318.50
2018-12-25T15:53:38.834Z,98322.53
2018-12-25T15:56:09.179Z,98317.16
2018-12-25T15:58:39.547Z,98317.16
2018-12-25T16:01:10.008Z,98318.50
2018-12-25T16:03:52.685Z,98324.72
2018-12-25T16:06:22.997Z,98332.78
2018-12-25T16:08:53.332Z,98342.19
2018-12-25T16:11:23.729Z,98350.20
2018-12-25T16:13:54.017Z,98349.70
2018-12-25T16:16:24.362Z,98355.02
2018-12-25T16:18:54.708Z,98355.86
2018-12-25T16:21:25.432Z,98350.03
2018-12-25T16:23:55.780Z,98361.19
2018-12-25T16:26:26.153Z,98357.63
2018-12-25T16:28:56.538Z,98359.34
2018-12-25T16:31:46.981Z,98363.79
2018-12-25T16:34:17.349Z,98361.57
2018-12-25T16:36:47.759Z,98363.79
2018-12-25T16:39:18.076Z,98364.17
2018-12-25T16:41:48.719Z,98371.85
2018-12-25T16:44:19.105Z,98373.58
2018-12-25T16:46:49.415Z,98375.80
2018-12-25T16:52:03.167Z,98385.62
2018-12-25T16:54:33.532Z,98385.12
2018-12-25T16:57:03.876Z,98390.73
2018-12-25T16:59:34.239Z,98384.44
2018-12-25T17:02:04.593Z,98399.84
2018-12-25T17:04:35.027Z,98399.30
2018-12-25T17:07:24.787Z,98397.81
2018-12-25T17:09:55.156Z,98399.95
2018-12-25T17:12:25.502Z,98407.37
2018-12-25T17:14:57.427Z,98398.77
2018-12-25T17:17:27.703Z,98400.03
2018-12-25T17:19:58.031Z,98406.20
2018-12-25T17:22:28.406Z,98404.80
2018-12-25T17:25:01.130Z,98401.61
2018-12-25T17:27:31.471Z,98402.41
2018-12-25T17:30:05.154Z,98396.56
2018-12-25T17:32:35.909Z,98394.12
2018-12-25T17:35:08.557Z,98387.86
2018-12-25T17:37:38.891Z,98390.09
2018-12-25T17:40:10.981Z,98386.38
2018-12-25T17:42:41.321Z,98399.73
2018-12-25T17:45:12.036Z,98401.50
2018-12-25T17:47:43.373Z,98400.53
2018-12-25T17:50:13.692Z,98408.45
2018-12-25T17:52:44.023Z,98403.55
2018-12-25T17:55:14.377Z,98398.55
2018-12-25T17:58:03.562Z,98399.42
2018-12-25T18:00:35.485Z,98397.15
2018-12-25T18:03:05.852Z,98401.23
2018-12-25T18:05:36.193Z,98402.03
2018-12-25T18:08:06.552Z,98403.70
2018-12-25T18:10:37.207Z,98403.23
2018-12-25T18:13:07.643Z,98396.42
2018-12-25T18:15:38.003Z,98399.58
2018-12-25T18:18:08.440Z,98400.84
2018-12-25T18:20:38.779Z,98396.80
2018-12-25T18:23:09.152Z,98403.06
2018-12-25T18:25:39.484Z,98394.61
2018-12-25T18:28:28.769Z,98404.41
2018-12-25T18:30:59.200Z,98395.88
2018-12-25T18:33:29.593Z,98399.03
2018-12-25T18:35:59.955Z,98401.72
2018-12-25T18:38:30.357Z,98402.92
2018-12-25T18:41:00.752Z,98404.31
2018-12-25T18:43:31.402Z,98405.61
2018-12-25T18:46:01.769Z,98406.08
2018-12-25T18:48:32.123Z,98407.80
2018-12-25T18:51:02.515Z,98408.68
2018-12-25T18:53:32.874Z,98415.81
2018-12-25T18:56:03.238Z,98416.75
2018-12-25T18:58:33.913Z,98414.52
2018-12-25T19:01:04.366Z,98421.20
2018-12-25T19:03:34.809Z,98423.47
2018-12-25T19:06:05.217Z,98426.16
2018-12-25T19:08:35.553Z,98431.08
2018-12-25T19:11:05.910Z,98436.05
2018-12-25T19:13:36.194Z,98437.09
2018-12-25T19:16:07.281Z,98435.75
2018-12-25T19:18:37.964Z,98442.47
2018-12-25T19:21:08.643Z,98440.72
2018-12-25T19:23:46.254Z,98438.91
2018-12-25T19:26:16.617Z,98441.59
2018-12-25T19:28:47.068Z,98443.41
2018-12-25T19:31:25.056Z,98445.63
2018-12-25T19:33:55.447Z,98444.66
2018-12-25T19:36:25.789Z,98444.75
2018-12-25T19:38:56.179Z,98447.91
2018-12-25T19:41:26.519Z,98450.12
2018-12-25T19:43:56.945Z,98448.41
2018-12-25T19:46:27.421Z,98451.47
2018-12-25T19:48:57.792Z,98460.42
2018-12-25T19:51:29.769Z,98453.61
2018-12-25T19:54:00.148Z,98451.89
2018-12-25T19:56:30.500Z,98459.95
2018-12-25T19:59:00.787Z,98450.04
2018-12-25T20:01:31.195Z,98447.30
2018-12-25T20:04:25.177Z,98442.47
2018-12-25T20:07:33.622Z,98441.13
2018-12-25T20:10:11.604Z,98439.23
2018-12-25T20:13:20.063Z,98442.38
2018-12-25T20:16:23.564Z,98433.44
2018-12-25T20:19:32.059Z,98434.23
2018-12-25T20:22:40.480Z,98440.95
2018-12-25T20:25:48.896Z,98431.63
2018-12-25T20:28:57.308Z,98432.88
2018-12-25T20:31:52.718Z,98440.02
2018-12-25T20:34:47.972Z,98427.04
2018-12-25T20:37:46.105Z,98425.23
2018-12-25T20:40:54.528Z,98420.70
2018-12-25T20:44:03.010Z,98409.94
2018-12-25T20:47:11.430Z,98419.77
2018-12-25T20:50:19.909Z,98421.98
2018-12-25T20:53:28.347Z,98427.75
2018-12-25T20:56:36.896Z,98420.14
2018-12-25T20:59:45.328Z,98425.47
2018-12-25T21:02:53.769Z,98425.88
2018-12-25T21:06:02.488Z,98427.23
2018-12-25T21:09:10.919Z,98424.53
2018-12-25T21:12:21.632Z,98417.73
2018-12-25T21:15:30.016Z,98419.48
2018-12-25T21:18:38.522Z,98417.67
2018-12-25T21:21:46.868Z,98427.93
2018-12-25T21:24:55.368Z,98428.90
2018-12-25T21:27:43.919Z,98436.09
2018-12-25T21:30:33.449Z,98441.94
2018-12-25T21:33:03.801Z,98449.16
2018-12-25T21:35:34.201Z,98443.69
2018-12-25T21:38:04.533Z,98446.38
2018-12-25T21:40:34.989Z,98437.44
2018-12-25T21:43:05.323Z,98443.69
2018-12-25T21:45:35.660Z,98438.31
2018-12-25T21:48:05.997Z,98433.40
2018-12-25T21:50:36.357Z,98437.90
2018-12-25T21:53:06.694Z,98426.30
2018-12-25T21:55:37.096Z,98424.45
2018-12-25T21:58:07.428Z,98428.48
2018-12-25T22:00:37.825Z,98424.45
2018-12-25T22:03:08.191Z,98417.73
2018-12-25T22:05:38.508Z,98418.61
2018-12-25T22:08:08.883Z,98419.56
2018-12-25T22:10:39.235Z,98411.50
2018-12-25T22:13:09.580Z,98415.03
2018-12-25T22:15:42.546Z,98417.73
2018-12-25T22:18:12.897Z,98413.22
2018-12-25T22:20:43.262Z,98420.83
2018-12-25T22:23:13.594Z,98411.41
2018-12-25T22:25:44.108Z,98403.34
2018-12-25T22:28:14.570Z,98407.84
2018-12-25T22:33:34.184Z,98404.78
2018-12-25T22:36:16.070Z,98398.05
2018-12-25T22:38:46.423Z,98382.43
2018-12-25T22:41:16.791Z,98382.43
2018-12-25T22:43:47.145Z,98381.55
2018-12-25T22:46:17.414Z,98376.13
2018-12-25T22:48:48.723Z,98380.59
2018-12-25T22:51:19.054Z,98372.52
2018-12-25T22:53:49.311Z,98371.62
2018-12-25T22:56:19.587Z,98366.23
2018-12-25T22:58:49.851Z,98369.80
2018-12-25T23:01:31.800Z,98373.75
2018-12-25T23:04:02.170Z,98375.56
2018-12-25T23:06:32.504Z,98380.48
2018-12-25T23:11:59.147Z,98378.95
2018-12-25T23:14:29.486Z,98379.37
2018-12-25T23:17:18.889Z,98379.75
2018-12-25T23:19:49.244Z,98386.33
2018-12-25T23:22:19.601Z,98372.32
2018-12-25T23:24:49.851Z,98367.73
2018-12-25T23:27:20.228Z,98375.71
2018-12-25T23:29:50.554Z,98365.41
2018-12-25T23:32:20.818Z,98372.23
2018-12-25T23:34:51.239Z,98366.85
2018-12-25T23:37:21.553Z,98373.66
2018-12-25T23:39:51.818Z,98367.03
2018-12-25T23:42:22.072Z,98366.62
2018-12-25T23:44:52.331Z,98361.80
2018-12-25T23:47:22.608Z,98372.31
2018-12-25T23:49:52.872Z,98370.59
2018-12-25T23:52:23.188Z,98380.16
2018-12-25T23:54:53.456Z,98387.31
2018-12-25T23:57:23.781Z,98391.44
2018-12-25T23:59:54.170Z,98396.44
